Time;durP1;ratioP1;P1;durP2;ratioP2;P2;SDS_P1;SDS_P2;PMS_P1;PMS_P2;Temp;Humidity;BMP_temperature;BMP_pressure;BME280_temperature;BME280_humidity;BME280_pressure;Samples;Min_cycle;Max_cycle;Signal;HPM_P1;HPM_P2
2022/03/25 00:01:20;;;;;;;91.03;51.83;;;;;;;4.19;100.00;161662.31;5070127;28;20059;-59
2022/03/25 00:03:45;;;;;;;72.50;50.78;;;;;;;4.25;100.00;161678.41;5071721;28;20099;-58
2022/03/25 00:06:11;;;;;;;80.90;49.55;;;;;;;4.17;100.00;161656.91;5069709;28;20079;-58
2022/03/25 00:08:36;;;;;;;81.72;49.97;;;;;;;4.00;100.00;161613.88;5071602;28;20032;-58
2022/03/25 00:11:02;;;;;;;79.35;47.50;;;;;;;3.91;100.00;161589.75;5069372;28;20025;-58
2022/03/25 00:13:27;;;;;;;86.07;51.80;;;;;;;3.86;100.00;161576.25;5071147;28;20016;-58
2022/03/25 00:15:52;;;;;;;83.50;54.50;;;;;;;3.85;100.00;161574.94;5071775;28;20086;-59
2022/03/25 00:18:18;;;;;;;73.43;49.78;;;;;;;3.69;100.00;161533.25;5069785;28;20045;-59
2022/03/25 00:20:45;;;;;;;81.63;54.00;;;;;;;3.70;100.00;161535.94;5070987;28;20471;-59
2022/03/25 00:23:10;;;;;;;78.95;50.42;;;;;;;3.84;100.00;161570.88;5069851;28;20488;-59
2022/03/25 00:25:36;;;;;;;77.43;49.00;;;;;;;3.75;100.00;161549.41;5070835;28;20078;-59
2022/03/25 00:28:01;;;;;;;84.80;52.67;;;;;;;3.59;100.00;161506.41;5069640;28;20511;-59
2022/03/25 00:30:28;;;;;;;86.25;53.25;;;;;;;3.49;100.00;161480.91;5070835;28;20047;-59
2022/03/25 00:32:54;;;;;;;79.72;51.67;;;;;;;3.44;100.00;161467.44;5069980;28;20044;-59
2022/03/25 00:35:20;;;;;;;82.32;51.40;;;;;;;3.42;100.00;161463.41;5070425;28;20028;-59
2022/03/25 00:37:46;;;;;;;73.80;50.67;;;;;;;3.35;100.00;161444.59;5069332;28;20041;-59
2022/03/25 00:40:11;;;;;;;84.85;51.28;;;;;;;3.26;100.00;161421.78;5070820;28;20078;-57
2022/03/25 00:42:37;;;;;;;84.50;52.30;;;;;;;3.23;100.00;161412.38;5069109;28;20127;-58
2022/03/25 00:45:04;;;;;;;80.70;50.55;;;;;;;3.21;100.00;161407.00;5070877;28;20035;-58
2022/03/25 00:47:29;;;;;;;88.28;59.40;;;;;;;3.18;100.00;161400.28;5069845;28;20502;-58
2022/03/25 00:49:55;;;;;;;102.38;56.53;;;;;;;3.30;100.00;161431.19;5070487;28;20078;-58
2022/03/25 00:52:20;;;;;;;90.13;55.78;;;;;;;3.49;100.00;161480.91;5069579;28;20055;-58
2022/03/25 00:54:46;;;;;;;90.85;61.33;;;;;;;3.78;100.00;161556.13;5071078;28;20024;-59
2022/03/25 00:57:11;;;;;;;102.22;63.92;;;;;;;3.99;100.00;161611.19;5069276;28;20044;-59
2022/03/25 00:59:36;;;;;;;109.18;60.78;;;;;;;4.11;100.00;161643.47;5070855;28;20082;-59
2022/03/25 01:02:02;;;;;;;92.47;60.08;;;;;;;4.27;100.00;161683.81;5068835;28;20052;-59
2022/03/25 01:04:29;;;;;;;95.53;63.20;;;;;;;4.36;100.00;161706.66;5069958;28;20044;-59
2022/03/25 01:06:55;;;;;;;103.55;62.20;;;;;;;4.47;100.00;161734.88;5069561;28;20047;-58
2022/03/25 01:09:21;;;;;;;112.55;65.55;;;;;;;4.52;100.00;161748.31;5070341;28;20020;-58
2022/03/25 01:11:47;;;;;;;95.47;59.13;;;;;;;4.52;100.00;161748.31;5069229;28;20036;-58
2022/03/25 01:14:13;;;;;;;95.70;59.83;;;;;;;4.48;100.00;161738.88;5070536;28;20164;-59
2022/03/25 01:16:38;;;;;;;106.72;62.63;;;;;;;4.34;100.00;161702.63;5069633;28;20059;-59
2022/03/25 01:19:04;;;;;;;101.93;62.80;;;;;;;4.43;100.00;161725.47;5070296;28;20040;-58
2022/03/25 01:21:29;;;;;;;93.22;60.40;;;;;;;4.40;100.00;161718.75;5069211;28;20036;-58
2022/03/25 01:23:56;;;;;;;109.07;65.78;;;;;;;4.36;100.00;161707.97;5070611;28;20024;-58
2022/03/25 01:26:21;;;;;;;104.72;63.55;;;;;;;4.34;100.00;161701.25;5068759;28;20518;-59
2022/03/25 01:28:47;;;;;;;105.10;65.35;;;;;;;4.27;100.00;161683.81;5070647;28;20016;-58
2022/03/25 01:31:13;;;;;;;105.45;65.05;;;;;;;4.19;100.00;161662.31;5068979;28;20108;-58
2022/03/25 01:33:39;;;;;;;99.03;65.10;;;;;;;4.15;100.00;161652.88;5070588;28;20033;-59
2022/03/25 01:36:05;;;;;;;101.90;66.22;;;;;;;4.10;100.00;161640.78;5070270;28;20024;-58
2022/03/25 01:38:32;;;;;;;95.80;62.67;;;;;;;4.01;100.00;161616.59;5068962;28;20044;-58
2022/03/25 01:40:58;;;;;;;94.60;60.55;;;;;;;3.88;100.00;161581.66;5070198;28;20028;-59
2022/03/25 01:43:24;;;;;;;95.47;60.92;;;;;;;3.76;100.00;161552.06;5060057;28;20480;-59
2022/03/25 01:45:49;;;;;;;105.53;65.28;;;;;;;3.62;100.00;161514.44;5050335;28;20029;-58
2022/03/25 01:48:18;;;;;;;108.35;69.70;;;;;;;3.53;100.00;161490.31;5048645;28;20037;-58
2022/03/25 01:50:46;;;;;;;117.50;66.65;;;;;;;3.68;100.00;161530.59;5068872;28;20020;-59
2022/03/25 01:53:15;;;;;;;117.93;68.75;;;;;;;3.77;100.00;161553.44;5068837;28;20048;-59
2022/03/25 01:55:48;;;;;;;115.60;68.32;;;;;;;3.74;100.00;161545.34;5070188;28;20104;-59
2022/03/25 01:58:14;;;;;;;108.53;68.93;;;;;;;3.62;100.00;161514.44;5068344;28;20052;-59
2022/03/25 02:00:40;;;;;;;113.38;71.68;;;;;;;3.48;100.00;161479.53;5069818;28;20033;-59
2022/03/25 02:03:05;;;;;;;102.88;66.72;;;;;;;3.36;100.00;161447.31;5068265;28;20533;-59
2022/03/25 02:05:31;;;;;;;94.35;63.00;;;;;;;3.15;100.00;161392.22;5069721;28;20051;-59
2022/03/25 02:07:56;;;;;;;100.78;61.63;;;;;;;3.13;100.00;161388.19;5068816;28;20037;-59
2022/03/25 02:10:22;;;;;;;98.32;63.33;;;;;;;2.91;100.00;161329.09;5069623;28;20035;-59
2022/03/25 02:12:48;;;;;;;112.82;68.03;;;;;;;2.78;100.00;161296.88;5071183;28;20035;-59
2022/03/25 02:15:13;;;;;;;101.38;67.80;;;;;;;2.68;100.00;161271.34;5073603;28;20434;-59
2022/03/25 02:17:39;;;;;;;117.72;67.88;;;;;;;2.60;100.00;161248.53;5072083;28;20045;-59
2022/03/25 02:20:08;;;;;;;111.28;71.72;;;;;;;2.62;100.00;161253.91;5073843;28;20032;-59
2022/03/25 02:22:36;;;;;;;124.40;72.78;;;;;;;2.72;100.00;161280.75;5072659;28;20033;-59
2022/03/25 02:25:08;;;;;;;129.43;84.15;;;;;;;2.89;100.00;161323.72;5073806;28;20024;-59
2022/03/25 02:27:35;;;;;;;123.82;78.38;;;;;;;3.04;100.00;161364.00;5072136;28;20536;-59
2022/03/25 02:30:00;;;;;;;145.70;83.93;;;;;;;2.97;100.00;161345.22;5073751;28;20483;-59
2022/03/25 02:32:26;;;;;;;123.13;80.70;;;;;;;3.05;100.00;161366.72;5071803;28;20090;-59
2022/03/25 02:34:51;;;;;;;126.00;76.97;;;;;;;2.98;100.00;161347.91;5073952;28;20020;-59
2022/03/25 02:37:17;;;;;;;129.27;78.70;;;;;;;2.90;100.00;161326.41;5071955;28;20041;-59
2022/03/25 02:39:42;;;;;;;128.07;78.72;;;;;;;2.97;100.00;161345.22;5073452;28;20054;-59
2022/03/25 02:42:08;;;;;;;133.52;79.13;;;;;;;3.08;100.00;161374.78;5071885;28;20474;-59
2022/03/25 02:44:33;;;;;;;122.65;75.57;;;;;;;3.04;100.00;161364.00;5073759;28;20073;-58
2022/03/25 02:46:58;;;;;;;125.60;76.07;;;;;;;2.95;100.00;161339.81;5072182;28;20032;-59
2022/03/25 02:49:24;;;;;;;129.77;82.10;;;;;;;2.85;100.00;161315.69;5073014;28;20511;-59
2022/03/25 02:51:49;;;;;;;131.05;78.60;;;;;;;2.83;100.00;161310.31;5070571;28;20086;-58
2022/03/25 02:54:15;;;;;;;142.70;84.47;;;;;;;2.87;100.00;161319.69;5072764;28;20029;-59
2022/03/25 02:56:40;;;;;;;142.70;80.93;;;;;;;2.88;100.00;161321.03;5071700;28;20542;-58
2022/03/25 02:59:05;;;;;;;132.07;84.68;;;;;;;2.94;100.00;161337.19;5072645;28;20024;-58
2022/03/25 03:01:31;;;;;;;136.13;81.05;;;;;;;2.97;100.00;161345.22;5071736;28;20044;-59
2022/03/25 03:03:56;;;;;;;144.57;84.40;;;;;;;3.02;100.00;161358.63;5073405;28;20430;-59
2022/03/25 03:06:21;;;;;;;130.82;83.70;;;;;;;2.99;100.00;161351.91;5071528;28;20182;-58
2022/03/25 03:08:47;;;;;;;133.40;81.68;;;;;;;2.93;100.00;161334.50;5072904;28;20025;-58
2022/03/25 03:11:13;;;;;;;131.85;76.72;;;;;;;2.81;100.00;161304.91;5071401;28;20021;-58
2022/03/25 03:13:38;;;;;;;147.95;85.38;;;;;;;2.69;100.00;161272.72;5072994;28;20024;-58
2022/03/25 03:16:04;;;;;;;137.15;80.30;;;;;;;2.44;100.00;161208.25;5072044;28;20112;-58
2022/03/25 03:18:30;;;;;;;129.88;78.35;;;;;;;2.47;100.00;161216.31;5072859;28;20060;-58
2022/03/25 03:20:55;;;;;;;134.90;82.85;;;;;;;2.41;100.00;161198.84;5072888;28;20047;-58
2022/03/25 03:23:21;;;;;;;145.02;86.30;;;;;;;2.30;100.00;161170.66;5070973;28;20036;-58
2022/03/25 03:25:46;;;;;;;127.45;81.97;;;;;;;2.32;100.00;161177.38;5072237;28;20020;-59
2022/03/25 03:28:11;;;;;;;130.00;79.43;;;;;;;2.33;100.00;161178.75;5070977;28;20105;-58
2022/03/25 03:30:37;;;;;;;100.75;63.20;;;;;;;2.00;100.00;161092.81;5072747;28;20016;-58
2022/03/25 03:33:04;;;;;;;107.47;68.20;;;;;;;1.98;100.00;161087.44;5070709;28;20115;-59
2022/03/25 03:35:32;;;;;;;119.10;76.88;;;;;;;1.77;100.00;161033.78;5072766;28;20070;-59
2022/03/25 03:37:57;;;;;;;143.70;87.35;;;;;;;1.71;100.00;161017.69;5071384;28;20044;-59
2022/03/25 03:40:23;;;;;;;143.70;88.43;;;;;;;1.85;100.00;161055.25;5071974;28;20024;-58
2022/03/25 03:42:48;;;;;;;158.80;94.93;;;;;;;2.15;100.00;161131.78;5071316;28;20067;-58
2022/03/25 03:45:14;;;;;;;164.35;92.07;;;;;;;2.23;100.00;161153.25;5072145;28;20021;-59
2022/03/25 03:47:41;;;;;;;166.80;100.63;;;;;;;2.22;100.00;161151.88;5070787;28;20127;-59
2022/03/25 03:50:11;;;;;;;161.35;96.85;;;;;;;2.30;100.00;161172.03;5072383;28;20028;-58
2022/03/25 03:52:36;;;;;;;158.00;96.97;;;;;;;2.26;100.00;161159.94;5070560;28;20051;-58
2022/03/25 03:55:07;;;;;;;147.32;94.10;;;;;;;2.25;100.00;161158.59;5072304;28;20021;-58
2022/03/25 03:57:34;;;;;;;157.77;90.45;;;;;;;2.16;100.00;161135.78;5071057;28;20052;-58
2022/03/25 03:59:59;;;;;;;160.35;91.57;;;;;;;2.05;100.00;161106.22;5071894;28;20040;-59
2022/03/25 04:02:24;;;;;;;147.80;86.15;;;;;;;1.97;100.00;161084.81;5070345;28;20563;-59
2022/03/25 04:04:50;;;;;;;153.77;91.53;;;;;;;1.90;100.00;161068.66;5072066;28;20048;-59
2022/03/25 04:07:15;;;;;;;146.18;88.13;;;;;;;1.70;100.00;161016.34;5070331;28;20128;-59
2022/03/25 04:09:41;;;;;;;147.63;85.68;;;;;;;1.68;100.00;161010.97;5071694;28;20456;-59
2022/03/25 04:12:11;;;;;;;150.50;88.55;;;;;;;1.60;100.00;160988.19;5070401;28;20040;-58
2022/03/25 04:14:37;;;;;;;157.60;93.70;;;;;;;1.54;100.00;160973.41;5072192;28;20495;-59
2022/03/25 04:17:03;;;;;;;146.98;88.20;;;;;;;1.46;100.00;160953.25;5070142;28;20032;-58
2022/03/25 04:19:28;;;;;;;167.60;95.55;;;;;;;1.61;100.00;160990.81;5071491;28;20040;-58
2022/03/25 04:21:54;;;;;;;190.95;102.93;;;;;;;1.69;100.00;161012.31;5069942;28;20106;-58
2022/03/25 04:24:19;;;;;;;180.48;102.43;;;;;;;1.96;100.00;161082.09;5071173;28;20020;-58
2022/03/25 04:26:44;;;;;;;180.07;100.07;;;;;;;1.90;100.00;161067.34;5069956;28;20510;-58
2022/03/25 04:29:10;;;;;;;163.82;96.88;;;;;;;1.85;100.00;161055.25;5071316;28;20512;-58
2022/03/25 04:31:36;;;;;;;146.98;91.22;;;;;;;1.75;100.00;161028.38;5070000;28;20040;-58
2022/03/25 04:34:01;;;;;;;146.15;90.65;;;;;;;1.47;100.00;160954.63;5071710;28;20021;-58
2022/03/25 04:36:27;;;;;;;146.52;91.32;;;;;;;1.54;100.00;160974.75;5068826;28;20044;-58
2022/03/25 04:38:52;;;;;;;162.98;89.32;;;;;;;1.46;100.00;160953.25;5071249;28;20016;-58
2022/03/25 04:41:17;;;;;;;174.10;99.93;;;;;;;1.40;100.00;160937.19;5069617;28;20068;-59
2022/03/25 04:43:43;;;;;;;178.25;97.90;;;;;;;1.38;100.00;160933.16;5071159;28;20034;-59
2022/03/25 04:46:08;;;;;;;175.18;97.90;;;;;;;1.33;100.00;160919.78;5068895;28;20055;-59
2022/03/25 04:48:34;;;;;;;168.50;97.82;;;;;;;1.30;100.00;160910.38;5071357;28;20439;-59
2022/03/25 04:50:59;;;;;;;171.90;102.03;;;;;;;1.26;100.00;160902.31;5069375;28;20029;-59
2022/03/25 04:53:26;;;;;;;175.02;98.15;;;;;;;1.24;100.00;160896.94;5070599;28;20040;-59
2022/03/25 04:55:52;;;;;;;168.20;93.90;;;;;;;1.22;100.00;160891.59;5070620;28;20020;-59
2022/03/25 04:58:17;;;;;;;158.77;94.40;;;;;;;1.19;100.00;160883.53;5069192;28;20039;-59
2022/03/25 05:00:43;;;;;;;158.23;92.93;;;;;;;1.17;100.00;160878.16;5070751;28;20028;-58
2022/03/25 05:03:08;;;;;;;176.23;97.93;;;;;;;1.13;100.00;160867.44;5069150;28;20446;-59
2022/03/25 05:05:34;;;;;;;156.98;91.78;;;;;;;0.97;100.00;160824.53;5070679;28;20052;-58
2022/03/25 05:07:59;;;;;;;168.63;96.97;;;;;;;1.07;100.00;160851.38;5069339;28;20067;-59
2022/03/25 05:10:25;;;;;;;174.45;97.57;;;;;;;0.97;100.00;160824.53;5070822;28;20028;-58
2022/03/25 05:12:50;;;;;;;159.52;94.97;;;;;;;0.87;100.00;160799.06;5068565;28;20098;-56
2022/03/25 05:15:15;;;;;;;171.60;95.47;;;;;;;0.77;100.00;160773.59;5070178;28;20085;-56
2022/03/25 05:17:51;;;;;;;164.05;92.15;;;;;;;0.73;100.00;160764.19;5068778;28;20044;-56
2022/03/25 05:20:18;;;;;;;178.38;99.38;;;;;;;0.72;100.00;160760.13;5069793;28;20028;-56
2022/03/25 05:22:45;;;;;;;191.00;106.38;;;;;;;0.86;100.00;160797.69;5068463;28;20086;-56
2022/03/25 05:25:11;;;;;;;200.40;108.07;;;;;;;0.95;100.00;160820.50;5069995;28;20060;-57
2022/03/25 05:27:43;;;;;;;194.32;105.18;;;;;;;0.99;100.00;160829.91;5069223;28;20040;-57
2022/03/25 05:30:09;;;;;;;197.00;112.43;;;;;;;0.99;100.00;160829.91;5069690;28;20032;-57
2022/03/25 05:32:35;;;;;;;201.13;107.97;;;;;;;0.96;100.00;160823.19;5068598;28;20143;-57
2022/03/25 05:35:00;;;;;;;201.35;114.78;;;;;;;1.17;100.00;160876.84;5070093;28;20033;-56
2022/03/25 05:37:25;;;;;;;208.63;111.18;;;;;;;1.17;100.00;160878.16;5068497;28;20047;-56
2022/03/25 05:39:51;;;;;;;186.90;101.57;;;;;;;1.09;100.00;160856.69;5069252;28;20070;-57
2022/03/25 05:42:16;;;;;;;189.73;104.20;;;;;;;1.02;100.00;160837.91;5066511;28;20052;-56
2022/03/25 05:44:41;;;;;;;187.43;108.35;;;;;;;0.99;100.00;160831.22;5060157;28;20031;-56
2022/03/25 05:47:07;;;;;;;189.73;103.45;;;;;;;0.95;100.00;160821.84;5055697;28;20040;-56
2022/03/25 05:49:33;;;;;;;189.20;107.15;;;;;;;0.97;100.00;160824.53;5058211;28;20372;-56
2022/03/25 05:51:58;;;;;;;193.15;107.18;;;;;;;0.94;100.00;160819.16;5057023;28;20102;-56
2022/03/25 05:54:23;;;;;;;190.88;105.38;;;;;;;0.98;100.00;160827.22;5059566;28;20047;-56
2022/03/25 05:56:49;;;;;;;135.30;80.45;;;;;;;0.98;100.00;160828.53;5057031;28;20048;-56
2022/03/25 05:59:14;;;;;;;161.23;92.40;;;;;;;0.87;100.00;160800.38;5058067;28;20024;-56
2022/03/25 06:01:40;;;;;;;157.18;90.82;;;;;;;0.84;100.00;160792.34;5058645;28;20029;-56
2022/03/25 06:04:05;;;;;;;158.57;88.38;;;;;;;0.92;100.00;160812.44;5060134;28;20032;-56
2022/03/25 06:06:31;;;;;;;152.10;89.35;;;;;;;0.89;100.00;160805.75;5056902;28;20412;-56
2022/03/25 06:08:56;;;;;;;164.20;96.47;;;;;;;0.81;100.00;160784.28;5060521;28;20020;-56
2022/03/25 06:11:22;;;;;;;133.00;78.40;;;;;;;0.81;100.00;160782.97;5058166;28;20037;-57
2022/03/25 06:13:47;;;;;;;152.40;82.22;;;;;;;0.74;100.00;160766.88;5058644;28;20025;-56
2022/03/25 06:16:13;;;;;;;142.65;83.88;;;;;;;0.82;100.00;160786.97;5058819;28;20027;-57
2022/03/25 06:18:38;;;;;;;135.85;76.45;;;;;;;0.82;100.00;160785.66;5058005;28;20029;-56
2022/03/25 06:21:04;;;;;;;133.57;82.18;;;;;;;0.83;100.00;160789.66;5058653;28;20021;-56
2022/03/25 06:23:29;;;;;;;119.85;72.65;;;;;;;0.86;100.00;160796.38;5058117;28;20047;-56
2022/03/25 06:25:55;;;;;;;120.78;74.82;;;;;;;0.78;100.00;160776.28;5060460;28;20032;-56
2022/03/25 06:28:22;;;;;;;145.75;80.45;;;;;;;0.75;100.00;160768.22;5056281;28;20025;-56
2022/03/25 06:30:48;;;;;;;223.57;116.13;;;;;;;1.35;100.00;160923.78;5060135;28;20025;-56
2022/03/25 06:33:14;;;;;;;241.52;124.18;;;;;;;1.84;100.00;161051.25;5056816;28;20029;-56
2022/03/25 06:35:39;;;;;;;221.27;125.03;;;;;;;2.03;100.00;161100.91;5060071;28;20027;-56
2022/03/25 06:38:05;;;;;;;241.82;130.13;;;;;;;2.17;100.00;161138.47;5057986;28;20037;-56
2022/03/25 06:40:31;;;;;;;230.73;123.40;;;;;;;2.33;100.00;161178.75;5058387;28;20500;-56
2022/03/25 06:42:57;;;;;;;226.88;121.57;;;;;;;2.46;100.00;161213.63;5058668;28;20055;-56
2022/03/25 06:45:24;;;;;;;228.07;129.15;;;;;;;2.60;100.00;161248.53;5058819;28;20021;-56
2022/03/25 06:47:50;;;;;;;210.57;119.22;;;;;;;2.70;100.00;161275.41;5055549;28;20136;-56
2022/03/25 06:50:17;;;;;;;195.02;113.18;;;;;;;2.80;100.00;161302.22;5059975;28;20078;-57
2022/03/25 06:52:43;;;;;;;200.98;121.22;;;;;;;2.92;100.00;161331.78;5057627;28;20037;-56
2022/03/25 06:55:10;;;;;;;218.40;122.40;;;;;;;3.05;100.00;161366.72;5058158;28;20608;-56
2022/03/25 06:57:36;;;;;;;199.52;124.13;;;;;;;3.16;100.00;161396.22;5057064;28;20071;-56
2022/03/25 07:00:03;;;;;;;198.00;121.95;;;;;;;3.26;100.00;161420.41;5061328;28;20101;-56
2022/03/25 07:02:29;;;;;;;189.20;115.13;;;;;;;3.36;100.00;161447.31;5062395;28;21413;-56
2022/03/25 07:04:54;;;;;;;192.90;116.72;;;;;;;3.39;100.00;161455.34;5070351;28;20052;-56
2022/03/25 07:07:25;;;;;;;186.25;112.90;;;;;;;3.46;100.00;161474.13;5071499;28;20399;-56
2022/03/25 07:09:51;;;;;;;187.02;110.13;;;;;;;3.56;100.00;161498.34;5073794;28;20035;-56
2022/03/25 07:12:17;;;;;;;184.15;113.15;;;;;;;3.59;100.00;161506.41;5072166;28;20032;-56
2022/03/25 07:14:43;;;;;;;177.57;111.15;;;;;;;3.74;100.00;161546.72;5073723;28;20032;-56
2022/03/25 07:17:08;;;;;;;182.20;114.32;;;;;;;3.84;100.00;161570.88;5072213;28;20044;-56
2022/03/25 07:19:34;;;;;;;187.50;111.18;;;;;;;3.96;100.00;161603.16;5072581;28;20031;-56
2022/03/25 07:21:59;;;;;;;172.35;108.28;;;;;;;3.95;100.00;161600.47;5071831;28;20442;-56
2022/03/25 07:24:24;;;;;;;181.63;113.03;;;;;;;4.07;100.00;161632.69;5071607;28;20035;-57
2022/03/25 07:26:50;;;;;;;164.00;104.13;;;;;;;4.18;100.00;161659.59;5071393;28;20033;-57
2022/03/25 07:29:15;;;;;;;168.80;105.90;;;;;;;4.32;100.00;161697.22;5073117;28;20024;-56
2022/03/25 07:31:40;;;;;;;157.50;103.03;;;;;;;4.51;100.00;161745.59;5072268;28;20041;-57
2022/03/25 07:34:06;;;;;;;160.80;106.65;;;;;;;4.53;100.00;161751.00;5073291;28;20070;-57
2022/03/25 07:36:32;;;;;;;159.75;104.07;;;;;;;4.71;100.00;161799.41;5071687;28;20040;-56
2022/03/25 07:38:57;;;;;;;157.43;103.35;;;;;;;4.92;100.00;161853.19;5073293;28;20031;-56
2022/03/25 07:41:22;;;;;;;146.98;103.05;;;;;;;5.01;100.00;161877.41;5070298;28;20037;-56
2022/03/25 07:43:48;;;;;;;149.60;100.35;;;;;;;5.22;100.00;161931.19;5073038;28;20020;-56
2022/03/25 07:46:14;;;;;;;151.52;103.35;;;;;;;5.53;100.00;162011.94;5071508;28;20024;-56
2022/03/25 07:48:39;;;;;;;147.60;101.38;;;;;;;5.99;100.00;162133.09;5073207;28;20491;-56
2022/03/25 07:51:05;;;;;;;141.25;101.00;;;;;;;6.65;100.00;162305.38;5071300;28;20024;-56
2022/03/25 07:53:32;;;;;;;138.65;100.32;;;;;;;7.51;100.00;162527.59;5073301;28;20021;-56
2022/03/25 07:55:58;;;;;;;123.63;89.30;;;;;;;8.06;100.00;162671.75;5071680;28;20032;-56
2022/03/25 07:58:23;;;;;;;124.72;94.13;;;;;;;8.46;100.00;162776.84;5072447;28;20025;-57
2022/03/25 08:00:49;;;;;;;120.18;89.60;;;;;;;8.63;100.00;162821.41;5073085;28;20024;-57
2022/03/25 08:03:16;;;;;;;119.00;87.25;;;;;;;9.41;100.00;163023.66;5071285;28;20036;-57
2022/03/25 08:05:42;;;;;;;110.50;88.65;;;;;;;9.98;100.00;163174.72;5072364;28;20044;-57
2022/03/25 08:08:08;;;;;;;113.38;87.90;;;;;;;9.67;100.00;163093.81;5071268;28;20105;-57
2022/03/25 08:10:35;;;;;;;113.20;84.80;;;;;;;9.38;100.00;163016.91;5072828;28;20019;-57
2022/03/25 08:13:01;;;;;;;120.25;89.30;;;;;;;9.12;100.00;162949.47;5071016;28;20041;-57
2022/03/25 08:15:30;;;;;;;108.60;81.68;;;;;;;9.17;100.00;162962.97;5072582;28;20024;-57
2022/03/25 08:18:16;;;;;;;111.85;86.70;;;;;;;9.78;100.00;163122.16;5071230;28;20459;-56
2022/03/25 08:20:44;;;;;;;120.88;89.97;;;;;;;10.06;100.00;163195.00;5072295;28;20031;-56
2022/03/25 08:27:48;;;;;;;114.03;86.22;;;;;;;10.03;100.00;163186.88;5070922;28;20040;-56
2022/03/25 08:28:48;;;;;;;120.40;83.13;;;;;;;9.62;100.00;163080.31;5072264;28;20178;-57
2022/03/25 08:31:13;;;;;;;111.22;86.82;;;;;;;9.49;100.00;163046.56;5070724;28;20020;-57
2022/03/25 08:33:39;;;;;;;120.70;84.32;;;;;;;9.67;100.00;163092.44;5072492;28;20032;-57
2022/03/25 08:36:04;;;;;;;119.30;88.63;;;;;;;9.88;100.00;163146.41;5070490;28;20389;-57
2022/03/25 08:38:30;;;;;;;108.70;82.75;;;;;;;9.81;100.00;163130.22;5072022;28;20360;-57
2022/03/25 08:40:55;;;;;;;113.22;85.25;;;;;;;9.84;100.00;163138.34;5072445;28;20016;-56
2022/03/25 08:43:20;;;;;;;112.90;83.70;;;;;;;9.89;100.00;163149.09;5070131;28;20048;-57
2022/03/25 08:45:46;;;;;;;115.32;85.60;;;;;;;9.98;100.00;163173.41;5071915;28;20032;-57
2022/03/25 08:48:11;;;;;;;105.95;81.72;;;;;;;10.09;100.00;163203.06;5070445;28;20035;-57
2022/03/25 08:50:37;;;;;;;105.28;85.72;;;;;;;10.45;100.00;163297.63;5071675;28;20044;-57
2022/03/25 08:53:02;;;;;;;103.82;81.18;;;;;;;10.77;100.00;163379.94;5070576;28;20040;-56
2022/03/25 08:55:28;;;;;;;104.53;81.07;;;;;;;11.23;100.00;163500.09;5071742;28;20032;-56
2022/03/25 08:57:54;;;;;;;106.15;81.25;;;;;;;11.38;100.00;163540.63;5069902;28;20044;-56
2022/03/25 09:00:20;;;;;;;109.72;84.70;;;;;;;11.00;100.00;163440.69;5071741;28;20032;-57
2022/03/25 09:02:45;;;;;;;115.32;85.22;;;;;;;11.06;100.00;163456.88;5070442;28;20067;-57
2022/03/25 09:05:11;;;;;;;106.60;81.97;;;;;;;11.28;100.00;163513.63;5070825;28;20511;-57
2022/03/25 09:07:38;;;;;;;111.53;85.55;;;;;;;11.06;100.00;163456.88;5070183;28;20488;-57
2022/03/25 09:10:05;;;;;;;109.13;82.65;;;;;;;10.83;100.00;163396.13;5071892;28;20027;-57
2022/03/25 09:12:32;;;;;;;107.05;82.88;;;;;;;10.88;100.00;163408.28;5069933;28;20052;-57
2022/03/25 09:14:57;;;;;;;107.72;80.97;;;;;;;11.04;100.00;163451.50;5071545;28;20395;-57
2022/03/25 09:17:22;;;;;;;116.38;82.18;;;;;;;11.22;100.00;163497.38;5069925;28;20037;-57
2022/03/25 09:19:48;;;;;;;117.40;84.40;;;;;;;11.57;100.00;163590.59;5071164;28;20530;-57
2022/03/25 09:22:13;;;;;;;106.18;81.00;;;;;;;12.09;100.00;163724.38;5069237;28;20033;-56
2022/03/25 09:24:39;;;;;;;106.35;81.00;;;;;;;12.07;100.00;163720.28;5071567;28;20033;-57
2022/03/25 09:27:04;;;;;;;100.97;77.68;;;;;;;12.75;100.00;163897.34;5069580;28;20051;-57
2022/03/25 09:29:30;;;;;;;98.78;75.45;;;;;;;12.94;100.00;163948.69;5071278;28;20012;-57
2022/03/25 09:31:55;;;;;;;97.97;74.90;;;;;;;13.48;100.00;164089.34;5070018;28;20504;-57
2022/03/25 09:37:05;;;;;;;93.97;76.13;;;;;;;14.36;100.00;164319.28;5069834;28;20044;-57
2022/03/25 09:39:30;;;;;;;107.65;73.20;;;;;;;14.04;100.00;164236.78;5071168;28;20017;-57
2022/03/25 09:41:57;;;;;;;100.88;74.63;;;;;;;14.95;100.00;164473.56;5069594;28;20045;-57
2022/03/25 09:44:22;;;;;;;99.32;74.03;;;;;;;14.45;100.00;164343.66;5066522;28;20521;-57
2022/03/25 09:46:50;;;;;;;100.72;74.85;;;;;;;14.35;100.00;164317.94;5066207;28;20032;-57
2022/03/25 09:49:17;;;;;;;107.53;77.75;;;;;;;13.83;100.00;164181.31;5050334;28;20512;-57
2022/03/25 09:51:43;;;;;;;109.88;78.93;;;;;;;13.66;100.00;164135.34;5060385;28;20028;-57
2022/03/25 09:54:11;;;;;;;96.32;75.20;;;;;;;13.59;100.00;164119.09;5070984;28;20024;-57
2022/03/25 09:56:37;;;;;;;98.05;74.32;;;;;;;14.02;100.00;164230.03;5069288;28;20033;-57
2022/03/25 09:59:02;;;;;;;105.97;77.88;;;;;;;14.03;100.00;164232.72;5070877;28;20055;-57
2022/03/25 10:01:28;;;;;;;96.53;73.50;;;;;;;14.16;100.00;164266.50;5069346;28;20392;-57
2022/03/25 10:03:53;;;;;;;84.95;67.43;;;;;;;14.81;100.00;164438.41;5070453;28;20027;-57
2022/03/25 10:06:20;;;;;;;95.45;72.18;;;;;;;15.29;100.00;164562.94;5068819;28;20419;-57
2022/03/25 10:08:54;;;;;;;92.13;70.10;;;;;;;15.39;100.00;164589.97;5070939;28;20098;-57
2022/03/25 10:11:31;;;;;;;85.45;68.13;;;;;;;14.99;100.00;164484.44;5068906;28;20090;-57
2022/03/25 10:14:15;;;;;;;90.07;71.05;;;;;;;14.75;100.00;164422.16;5057185;28;20032;-57
2022/03/25 10:16:43;;;;;;;85.30;66.78;;;;;;;15.11;100.00;164516.91;5065312;28;20040;-57
2022/03/25 10:19:11;;;;;;;88.95;69.05;;;;;;;14.98;100.00;164481.72;5068945;28;20673;-57
2022/03/25 10:21:56;;;;;;;82.32;67.40;;;;;;;14.66;100.00;164397.81;5068336;28;20037;-57
2022/03/25 10:24:38;;;;;;;99.18;69.15;;;;;;;14.56;100.00;164373.38;5069839;28;20559;-57
2022/03/25 10:27:05;;;;;;;93.43;70.50;;;;;;;14.88;100.00;164457.34;5054118;28;20516;-57
2022/03/25 10:29:30;;;;;;;95.38;69.95;;;;;;;14.63;100.00;164389.66;5035383;28;20388;-57
2022/03/25 10:32:07;;;;;;;86.32;68.65;;;;;;;14.52;100.00;164362.59;5037330;28;20090;-57
2022/03/25 10:34:37;;;;;;;87.32;69.65;;;;;;;14.10;100.00;164251.66;5052150;28;20106;-57
2022/03/25 10:37:14;;;;;;;95.95;67.50;;;;;;;14.32;100.00;164308.47;5053155;28;20035;-57
2022/03/25 10:39:51;;;;;;;84.78;67.90;;;;;;;14.41;100.00;164334.19;5054466;28;20029;-57
2022/03/25 10:42:17;;;;;;;85.60;64.38;;;;;;;14.55;100.00;164370.72;5052489;28;20063;-57
2022/03/25 10:44:43;;;;;;;87.88;69.72;;;;;;;14.56;100.00;164373.38;5054538;28;20091;-57
2022/03/25 10:47:17;;;;;;;88.10;65.70;;;;;;;15.59;100.00;164641.47;5052665;28;20033;-57
2022/03/25 10:49:46;;;;;;;84.05;66.10;;;;;;;15.48;100.00;164613.03;5054168;28;20029;-57
2022/03/25 10:52:23;;;;;;;;;;;;;;;15.77;100.00;164690.16;5053219;28;20045;-57
2022/03/25 10:54:49;;;;;;;86.72;67.07;;;;;;;16.58;100.00;164901.47;5054218;28;19913;-57
2022/03/25 10:57:17;;;;;;;89.22;68.80;;;;;;;16.07;100.00;164768.75;5052175;28;20044;-57
2022/03/25 10:59:43;;;;;;;78.30;62.60;;;;;;;15.73;100.00;164677.97;5054279;28;20025;-57
2022/03/25 11:02:10;;;;;;;83.82;64.47;;;;;;;16.35;100.00;164841.88;5068933;28;20496;-57